createdAt,value
2023-04-07T00:00:54.598Z,100970.85
2023-04-07T00:03:27.538Z,100962.98
2023-04-07T00:06:00.045Z,100979.10
2023-04-07T00:08:32.343Z,100967.49
2023-04-07T00:11:04.758Z,100971.91
2023-04-07T00:13:36.995Z,100968.02
2023-04-07T00:16:09.595Z,100963.36
2023-04-07T00:18:42.230Z,100957.41
2023-04-07T00:21:14.464Z,100957.21
2023-04-07T00:23:47.056Z,100957.11
2023-04-07T00:26:19.564Z,100958.66
2023-04-07T00:28:52.617Z,100954.23
2023-04-07T00:31:25.141Z,100957.13
2023-04-07T00:33:57.904Z,100963.16
2023-04-07T00:36:31.664Z,100963.90
2023-04-07T00:39:03.829Z,100949.55
2023-04-07T00:41:38.082Z,100946.66
2023-04-07T00:44:10.181Z,100961.52
2023-04-07T00:46:42.909Z,100958.61
2023-04-07T00:49:15.405Z,100957.58
2023-04-07T00:51:48.024Z,100953.52
2023-04-07T00:54:20.877Z,100951.34
2023-04-07T00:56:53.920Z,100949.13
2023-04-07T00:59:29.417Z,100945.01
2023-04-07T01:02:09.786Z,100945.67
2023-04-07T01:04:51.845Z,100944.14
2023-04-07T01:07:30.093Z,100941.42
2023-04-07T01:10:19.440Z,100928.07
2023-04-07T01:13:03.640Z,100934.39
2023-04-07T01:15:38.155Z,100931.27
2023-04-07T01:18:16.449Z,100927.84
2023-04-07T01:20:52.744Z,100912.66
2023-04-07T01:23:37.742Z,100894.67
2023-04-07T01:26:21.722Z,100920.89
2023-04-07T01:29:06.105Z,100914.76
2023-04-07T01:31:41.696Z,100896.95
2023-04-07T01:34:16.016Z,100910.34
2023-04-07T01:36:49.342Z,100913.27
2023-04-07T01:39:22.400Z,100910.72
2023-04-07T01:41:55.443Z,100911.59
2023-04-07T01:44:28.834Z,100905.83
2023-04-07T01:47:02.592Z,100906.40
2023-04-07T01:49:37.813Z,100906.70
2023-04-07T01:52:11.476Z,100903.88
2023-04-07T01:54:44.253Z,100903.15
2023-04-07T01:57:16.568Z,100896.02
2023-04-07T01:59:49.524Z,100892.30
2023-04-07T02:02:25.302Z,100891.52
2023-04-07T02:05:00.461Z,100895.36
2023-04-07T02:07:40.391Z,100894.64
2023-04-07T02:10:16.801Z,100877.25
2023-04-07T02:12:50.053Z,100885.78
2023-04-07T02:15:25.009Z,100888.39
2023-04-07T02:17:57.643Z,100885.76
2023-04-07T02:20:31.948Z,100880.40
2023-04-07T02:23:04.230Z,100880.37
2023-04-07T02:25:38.344Z,100878.90
2023-04-07T02:28:10.757Z,100879.48
2023-04-07T02:30:43.002Z,100878.25
2023-04-07T02:33:15.739Z,100875.35
2023-04-07T02:35:48.837Z,100872.60
2023-04-07T02:38:21.041Z,100873.41
2023-04-07T02:40:53.467Z,100871.37
2023-04-07T02:43:27.242Z,100866.05
2023-04-07T02:45:59.415Z,100865.53
2023-04-07T02:48:31.646Z,100860.77
2023-04-07T02:51:04.334Z,100857.43
2023-04-07T02:53:36.549Z,100851.83
2023-04-07T02:56:10.071Z,100853.71
2023-04-07T02:58:42.331Z,100855.27
2023-04-07T03:01:15.561Z,100855.46
2023-04-07T03:03:48.137Z,100853.98
2023-04-07T03:06:29.233Z,100854.86
2023-04-07T03:09:09.208Z,100851.73
2023-04-07T03:11:41.965Z,100840.17
2023-04-07T03:14:14.518Z,100851.80
2023-04-07T03:16:52.274Z,100850.27
2023-04-07T03:19:24.501Z,100843.89
2023-04-07T03:21:58.005Z,100846.73
2023-04-07T03:24:30.609Z,100848.27
2023-04-07T03:27:03.848Z,100846.31
2023-04-07T03:29:43.651Z,100847.28
2023-04-07T03:32:16.971Z,100842.42
2023-04-07T03:34:49.800Z,100842.28
2023-04-07T03:37:22.730Z,100839.86
2023-04-07T03:39:55.389Z,100838.71
2023-04-07T03:42:32.756Z,100838.35
2023-04-07T03:45:09.841Z,100831.14
2023-04-07T03:47:43.865Z,100831.69
2023-04-07T03:50:16.379Z,100831.89
2023-04-07T03:53:16.670Z,100832.07
2023-04-07T03:55:49.913Z,100824.88
2023-04-07T03:58:32.027Z,100826.64
2023-04-07T04:01:04.695Z,100820.80
2023-04-07T04:03:37.318Z,100811.52
2023-04-07T04:06:26.620Z,100817.27
2023-04-07T04:09:04.250Z,100819.09
2023-04-07T04:11:39.917Z,100816.20
2023-04-07T04:14:13.017Z,100817.33
2023-04-07T04:16:46.233Z,100816.46
2023-04-07T04:19:38.720Z,100811.39
2023-04-07T04:22:31.718Z,100818.88
2023-04-07T04:25:04.418Z,100817.39
2023-04-07T04:27:37.652Z,100820.23
2023-04-07T04:30:15.907Z,100820.35
2023-04-07T04:32:55.953Z,100825.35
2023-04-07T04:35:34.937Z,100827.30
2023-04-07T04:38:16.370Z,100823.64
2023-04-07T04:40:53.336Z,100821.94
2023-04-07T04:43:30.205Z,100818.83
2023-04-07T04:46:03.767Z,100824.04
2023-04-07T04:48:39.921Z,100824.41
2023-04-07T04:51:12.127Z,100813.71
2023-04-07T04:53:44.948Z,100828.52
2023-04-07T04:56:17.264Z,100827.64
2023-04-07T04:58:51.939Z,100825.70
2023-04-07T05:01:32.796Z,100828.19
2023-04-07T05:04:12.472Z,100824.42
2023-04-07T05:06:49.192Z,100820.88
2023-04-07T05:09:22.279Z,100821.68
2023-04-07T05:11:54.871Z,100823.44
2023-04-07T05:14:27.599Z,100822.00
2023-04-07T05:17:03.939Z,100824.81
2023-04-07T05:19:36.699Z,100824.95
2023-04-07T05:22:16.003Z,100831.20
2023-04-07T05:24:52.995Z,100831.98
2023-04-07T05:27:25.765Z,100832.77
2023-04-07T05:29:59.385Z,100833.48
2023-04-07T05:32:35.424Z,100829.48
2023-04-07T05:35:13.530Z,100820.85
2023-04-07T05:37:49.853Z,100829.84
2023-04-07T05:40:22.924Z,100827.05
2023-04-07T05:42:55.733Z,100824.09
2023-04-07T05:45:28.532Z,100824.42
2023-04-07T05:48:02.968Z,100821.23
2023-04-07T05:50:48.527Z,100825.02
2023-04-07T05:53:22.682Z,100821.96
2023-04-07T05:55:54.880Z,100826.06
2023-04-07T05:58:34.025Z,100815.34
2023-04-07T06:01:06.400Z,100830.63
2023-04-07T06:03:39.257Z,100830.55
2023-04-07T06:06:17.668Z,100830.85
2023-04-07T06:08:50.914Z,100827.90
2023-04-07T06:11:23.662Z,100825.34
2023-04-07T06:13:56.422Z,100827.40
2023-04-07T06:16:29.804Z,100825.81
2023-04-07T06:19:02.175Z,100825.90
2023-04-07T06:21:34.568Z,100833.25
2023-04-07T06:24:11.337Z,100837.43
2023-04-07T06:26:43.859Z,100832.81
2023-04-07T06:29:16.328Z,100831.09
2023-04-07T06:31:48.940Z,100833.98
2023-04-07T06:34:21.224Z,100826.69
2023-04-07T06:36:58.180Z,100816.05
2023-04-07T06:39:31.755Z,100832.95
2023-04-07T06:42:04.458Z,100822.29
2023-04-07T06:44:41.361Z,100833.40
2023-04-07T06:47:13.590Z,100832.48
2023-04-07T06:49:45.952Z,100820.81
2023-04-07T06:52:18.237Z,100823.14
2023-04-07T06:54:50.398Z,100810.96
2023-04-07T06:57:22.885Z,100829.05
2023-04-07T06:59:55.197Z,100826.36
2023-04-07T07:02:28.070Z,100814.93
2023-04-07T07:05:03.939Z,100824.10
2023-04-07T07:07:34.650Z,100823.65
2023-04-07T07:10:07.982Z,100826.52
2023-04-07T07:12:40.525Z,100827.99
2023-04-07T07:15:13.778Z,100816.66
2023-04-07T07:17:46.016Z,100827.38
2023-04-07T07:20:18.687Z,100826.67
2023-04-07T07:22:51.469Z,100820.83
2023-04-07T07:25:24.150Z,100819.90
2023-04-07T07:27:56.456Z,100822.60
2023-04-07T07:30:28.720Z,100820.67
2023-04-07T07:33:01.102Z,100812.64
2023-04-07T07:35:33.635Z,100830.42
2023-04-07T07:38:06.026Z,100837.32
2023-04-07T07:40:38.283Z,100834.48
2023-04-07T07:43:10.868Z,100839.41
2023-04-07T07:45:43.293Z,100826.38
2023-04-07T07:48:15.666Z,100813.42
2023-04-07T07:50:49.212Z,100845.83
2023-04-07T07:53:21.528Z,100847.37
2023-04-07T07:55:56.094Z,100839.54
2023-04-07T07:58:28.373Z,100843.19
2023-04-07T08:01:00.752Z,100844.91
2023-04-07T08:03:33.240Z,100844.21
2023-04-07T08:06:06.607Z,100847.73
2023-04-07T08:08:38.777Z,100847.66
2023-04-07T08:11:11.512Z,100849.23
2023-04-07T08:13:45.832Z,100846.57
2023-04-07T08:16:19.540Z,100845.36
2023-04-07T08:18:52.076Z,100841.29
2023-04-07T08:21:24.530Z,100841.77
2023-04-07T08:23:57.844Z,100834.00
2023-04-07T08:26:30.568Z,100842.03
2023-04-07T08:29:02.718Z,100840.41
2023-04-07T08:31:34.834Z,100846.02
2023-04-07T08:34:07.135Z,100849.43
2023-04-07T08:36:39.602Z,100855.91
2023-04-07T08:39:12.213Z,100857.09
2023-04-07T08:41:45.973Z,100860.30
2023-04-07T08:44:19.378Z,100858.09
2023-04-07T08:46:56.058Z,100863.23
2023-04-07T08:49:31.802Z,100864.42
2023-04-07T08:52:09.503Z,100861.63
2023-04-07T08:54:41.982Z,100862.80
2023-04-07T08:57:15.869Z,100854.41
2023-04-07T08:59:51.540Z,100858.35
2023-04-07T09:02:24.728Z,100855.50
2023-04-07T09:04:57.230Z,100856.13
2023-04-07T09:07:29.732Z,100856.98
2023-04-07T09:10:02.299Z,100856.56
2023-04-07T09:12:37.439Z,100857.29
2023-04-07T09:15:11.287Z,100855.15
2023-04-07T09:17:43.968Z,100852.15
2023-04-07T09:20:16.272Z,100850.34
2023-04-07T09:22:50.407Z,100850.59
2023-04-07T09:25:26.328Z,100850.34
2023-04-07T09:28:00.768Z,100849.36
2023-04-07T09:30:34.609Z,100853.02
2023-04-07T09:33:07.008Z,100850.11
2023-04-07T09:35:54.495Z,100851.28
2023-04-07T09:38:36.085Z,100845.88
2023-04-07T09:41:12.691Z,100844.87
2023-04-07T09:43:46.708Z,100842.83
2023-04-07T09:46:20.129Z,100842.76
2023-04-07T09:49:06.273Z,100840.43
2023-04-07T09:51:39.192Z,100837.98
2023-04-07T09:54:11.812Z,100839.16
2023-04-07T09:56:44.164Z,100836.24
2023-04-07T09:59:17.737Z,100826.98
2023-04-07T10:01:50.201Z,100830.84
2023-04-07T10:04:23.430Z,100832.48
2023-04-07T10:06:56.439Z,100833.67
2023-04-07T10:09:30.150Z,100830.42
2023-04-07T10:12:02.911Z,100832.17
2023-04-07T10:14:38.060Z,100824.11
2023-04-07T10:17:12.304Z,100823.06
2023-04-07T10:19:45.609Z,100823.79
2023-04-07T10:22:18.952Z,100826.41
2023-04-07T10:24:57.575Z,100827.53
2023-04-07T10:27:35.250Z,100817.13
2023-04-07T10:30:17.107Z,100824.14
2023-04-07T10:32:54.393Z,100824.84
2023-04-07T10:35:28.517Z,100825.94
2023-04-07T10:38:17.261Z,100822.60
2023-04-07T10:40:49.677Z,100818.83
2023-04-07T10:43:41.608Z,100817.60
2023-04-07T10:46:14.032Z,100811.84
2023-04-07T10:49:06.161Z,100802.70
2023-04-07T10:51:39.060Z,100806.55
2023-04-07T10:54:23.760Z,100806.30
2023-04-07T10:57:15.914Z,100800.73
2023-04-07T11:00:20.440Z,100806.73
2023-04-07T11:02:53.058Z,100806.65
2023-04-07T11:05:25.620Z,100813.45
2023-04-07T11:07:59.445Z,100815.79
2023-04-07T11:10:31.826Z,100813.77
2023-04-07T11:13:06.954Z,100816.62
2023-04-07T11:15:40.873Z,100819.86
2023-04-07T11:18:17.100Z,100816.73
2023-04-07T11:20:52.798Z,100818.98
2023-04-07T11:23:27.467Z,100818.39
2023-04-07T11:26:04.531Z,100811.80
2023-04-07T11:28:38.006Z,100812.88
2023-04-07T11:31:10.446Z,100814.04
2023-04-07T11:33:43.857Z,100813.17
2023-04-07T11:36:16.219Z,100815.13
2023-04-07T11:38:48.734Z,100811.13
2023-04-07T11:41:21.796Z,100808.84
2023-04-07T11:44:06.941Z,100806.29
2023-04-07T11:46:53.262Z,100801.95
2023-04-07T11:49:27.977Z,100804.30
2023-04-07T11:52:02.668Z,100800.91
2023-04-07T11:54:44.256Z,100800.95
2023-04-07T11:57:24.751Z,100803.65
2023-04-07T12:00:11.872Z,100797.43
2023-04-07T12:02:44.683Z,100794.48
2023-04-07T12:05:17.310Z,100791.59
2023-04-07T12:07:57.809Z,100790.60
2023-04-07T12:10:30.473Z,100792.92
2023-04-07T12:13:03.494Z,100797.14
2023-04-07T12:15:36.894Z,100791.70
2023-04-07T12:18:09.062Z,100791.33
2023-04-07T12:20:41.523Z,100795.38
2023-04-07T12:23:14.142Z,100791.05
2023-04-07T12:25:46.671Z,100795.79
2023-04-07T12:28:18.828Z,100795.02
2023-04-07T12:30:51.047Z,100791.18
2023-04-07T12:33:23.958Z,100785.75
2023-04-07T12:35:57.205Z,100783.79
2023-04-07T12:38:29.604Z,100786.98
2023-04-07T12:41:03.846Z,100780.19
2023-04-07T12:43:38.835Z,100790.89
2023-04-07T12:46:11.103Z,100788.86
2023-04-07T12:48:43.508Z,100788.83
2023-04-07T12:51:16.162Z,100788.73
2023-04-07T12:53:48.907Z,100792.45
2023-04-07T12:56:22.576Z,100791.33
2023-04-07T12:58:54.909Z,100793.88
2023-04-07T13:01:27.428Z,100793.52
2023-04-07T13:03:59.934Z,100786.07
2023-04-07T13:06:32.588Z,100793.69
2023-04-07T13:09:04.975Z,100790.53
2023-04-07T13:11:37.782Z,100791.14
2023-04-07T13:14:10.625Z,100790.48
2023-04-07T13:16:42.909Z,100788.95
2023-04-07T13:19:15.536Z,100794.05
2023-04-07T13:21:48.478Z,100794.42
2023-04-07T13:24:21.617Z,100793.47
2023-04-07T13:26:54.471Z,100790.27
2023-04-07T13:29:27.120Z,100787.67
2023-04-07T13:32:08.925Z,100786.63
2023-04-07T13:34:41.525Z,100783.11
2023-04-07T13:37:13.996Z,100785.75
2023-04-07T13:39:46.646Z,100785.10
2023-04-07T13:42:20.646Z,100779.11
2023-04-07T13:44:54.575Z,100781.52
2023-04-07T13:47:27.077Z,100776.45
2023-04-07T13:49:59.682Z,100775.48
2023-04-07T13:52:35.203Z,100768.17
2023-04-07T13:55:08.761Z,100766.83
2023-04-07T13:57:41.691Z,100769.70
2023-04-07T14:00:16.006Z,100770.90
2023-04-07T14:02:49.669Z,100760.68
2023-04-07T14:05:22.198Z,100767.98
2023-04-07T14:07:54.707Z,100772.86
2023-04-07T14:10:27.319Z,100770.24
2023-04-07T14:12:59.765Z,100768.53
2023-04-07T14:15:32.747Z,100766.70
2023-04-07T14:18:05.223Z,100769.58
2023-04-07T14:20:37.966Z,100766.64
2023-04-07T14:23:10.289Z,100765.96
2023-04-07T14:25:42.744Z,100763.98
2023-04-07T14:28:15.672Z,100767.80
2023-04-07T14:30:48.356Z,100766.24
2023-04-07T14:33:20.745Z,100767.57
2023-04-07T14:35:53.092Z,100767.15
2023-04-07T14:38:26.077Z,100755.79
2023-04-07T14:41:09.780Z,100764.34
2023-04-07T14:43:42.756Z,100763.89
2023-04-07T14:46:15.637Z,100762.11
2023-04-07T14:48:48.969Z,100764.71
2023-04-07T14:51:21.371Z,100766.98
2023-04-07T14:53:56.233Z,100765.65
2023-04-07T14:56:29.044Z,100763.85
2023-04-07T14:59:01.792Z,100763.14
2023-04-07T15:01:34.085Z,100764.83
2023-04-07T15:04:06.963Z,100763.23
2023-04-07T15:06:41.986Z,100762.61
2023-04-07T15:09:14.438Z,100764.25
2023-04-07T15:11:47.275Z,100765.70
2023-04-07T15:14:19.709Z,100762.88
2023-04-07T15:16:52.030Z,100765.25
2023-04-07T15:19:24.413Z,100760.31
2023-04-07T15:21:56.660Z,100752.31
2023-04-07T15:24:29.005Z,100768.42
2023-04-07T15:27:01.627Z,100767.39
2023-04-07T15:29:34.315Z,100766.17
2023-04-07T15:32:07.795Z,100764.72
2023-04-07T15:34:40.183Z,100769.97
2023-04-07T15:37:12.490Z,100766.67
2023-04-07T15:39:44.591Z,100767.77
2023-04-07T15:42:16.892Z,100771.11
2023-04-07T15:44:49.060Z,100767.37
2023-04-07T15:47:21.376Z,100772.24
2023-04-07T15:49:53.876Z,100766.36
2023-04-07T15:52:27.787Z,100766.19
2023-04-07T15:55:00.232Z,100766.46
2023-04-07T15:57:32.570Z,100766.86
2023-04-07T16:00:05.706Z,100760.82
2023-04-07T16:02:38.789Z,100759.23
2023-04-07T16:05:12.013Z,100748.09
2023-04-07T16:07:44.831Z,100757.11
2023-04-07T16:10:19.894Z,100749.63
2023-04-07T16:12:52.190Z,100765.45
2023-04-07T16:15:38.710Z,100762.17
2023-04-07T16:18:13.347Z,100765.23
2023-04-07T16:20:45.715Z,100765.59
2023-04-07T16:23:18.296Z,100753.52
2023-04-07T16:25:50.593Z,100762.91
2023-04-07T16:28:23.311Z,100762.05
2023-04-07T16:30:55.786Z,100765.11
2023-04-07T16:33:28.270Z,100762.54
2023-04-07T16:36:00.320Z,100765.01
2023-04-07T16:38:32.704Z,100765.12
2023-04-07T16:41:08.029Z,100765.73
2023-04-07T16:43:40.207Z,100764.92
2023-04-07T16:46:12.500Z,100750.92
2023-04-07T16:48:44.860Z,100761.23
2023-04-07T16:51:20.365Z,100760.75
2023-04-07T16:53:52.911Z,100764.27
2023-04-07T16:56:26.306Z,100765.39
2023-04-07T16:58:58.721Z,100770.65
2023-04-07T17:01:31.974Z,100772.13
2023-04-07T17:04:04.441Z,100772.65
2023-04-07T17:06:36.745Z,100775.27
2023-04-07T17:09:09.297Z,100774.80
2023-04-07T17:11:43.436Z,100780.11
2023-04-07T17:14:15.684Z,100776.46
2023-04-07T17:16:47.952Z,100778.27
2023-04-07T17:19:20.431Z,100773.66
2023-04-07T17:21:53.147Z,100786.16
2023-04-07T17:24:25.778Z,100790.05
2023-04-07T17:26:58.092Z,100791.96
2023-04-07T17:29:31.545Z,100795.89
2023-04-07T17:32:04.342Z,100795.16
2023-04-07T17:34:36.538Z,100799.27
2023-04-07T17:37:08.668Z,100805.77
2023-04-07T17:39:40.965Z,100808.04
2023-04-07T17:42:13.330Z,100809.08
2023-04-07T17:44:45.675Z,100808.16
2023-04-07T17:47:17.959Z,100812.70
2023-04-07T17:49:50.213Z,100813.98
2023-04-07T17:52:22.832Z,100811.38
2023-04-07T17:54:55.238Z,100817.45
2023-04-07T17:57:27.754Z,100818.27
2023-04-07T18:00:00.313Z,100820.36
2023-04-07T18:02:33.275Z,100816.32
2023-04-07T18:05:09.168Z,100814.77
2023-04-07T18:07:41.525Z,100821.94
2023-04-07T18:10:14.384Z,100822.45
2023-04-07T18:12:46.841Z,100823.40
2023-04-07T18:15:19.177Z,100824.35
2023-04-07T18:17:53.300Z,100826.13
2023-04-07T18:20:26.034Z,100812.86
2023-04-07T18:22:58.608Z,100827.36
2023-04-07T18:25:31.270Z,100830.45
2023-04-07T18:28:04.261Z,100832.29
2023-04-07T18:30:37.527Z,100833.73
2023-04-07T18:33:10.093Z,100833.36
2023-04-07T18:35:42.702Z,100837.31
2023-04-07T18:38:15.053Z,100840.18
2023-04-07T18:40:47.386Z,100843.16
2023-04-07T18:43:19.732Z,100846.42
2023-04-07T18:45:53.317Z,100842.77
2023-04-07T18:48:26.410Z,100849.80
2023-04-07T18:50:59.034Z,100847.70
2023-04-07T18:53:32.246Z,100851.23
2023-04-07T18:56:04.946Z,100852.42
2023-04-07T18:58:43.770Z,100856.09
2023-04-07T19:01:16.782Z,100863.48
2023-04-07T19:03:49.594Z,100871.09
2023-04-07T19:06:22.267Z,100881.26
2023-04-07T19:08:55.911Z,100881.70
2023-04-07T19:11:28.227Z,100866.31
2023-04-07T19:14:00.773Z,100880.02
2023-04-07T19:16:34.904Z,100881.59
2023-04-07T19:19:08.937Z,100885.57
2023-04-07T19:21:41.467Z,100888.48
2023-04-07T19:24:14.403Z,100884.41
2023-04-07T19:26:47.191Z,100885.46
2023-04-07T19:29:19.726Z,100879.77
2023-04-07T19:31:53.425Z,100882.16
2023-04-07T19:34:26.297Z,100870.33
2023-04-07T19:36:59.182Z,100873.92
2023-04-07T19:39:31.695Z,100871.23
2023-04-07T19:42:03.983Z,100870.34
2023-04-07T19:44:37.615Z,100878.62
2023-04-07T19:47:09.992Z,100877.67
2023-04-07T19:49:42.649Z,100878.52
2023-04-07T19:52:14.920Z,100881.91
2023-04-07T19:54:47.208Z,100883.70
2023-04-07T19:57:19.613Z,100884.59
2023-04-07T19:59:51.864Z,100885.22
2023-04-07T20:02:24.705Z,100887.70
2023-04-07T20:04:58.605Z,100886.33
2023-04-07T20:07:31.084Z,100886.67
2023-04-07T20:10:04.161Z,100890.31
2023-04-07T20:12:36.347Z,100893.25
2023-04-07T20:15:11.188Z,100896.55
2023-04-07T20:17:41.795Z,100893.54
2023-04-07T20:20:15.112Z,100898.66
2023-04-07T20:22:47.429Z,100896.97
2023-04-07T20:25:20.058Z,100895.09
2023-04-07T20:27:52.340Z,100897.06
2023-04-07T20:30:24.369Z,100899.89
2023-04-07T20:32:56.901Z,100897.72
2023-04-07T20:35:29.606Z,100901.56
2023-04-07T20:38:02.866Z,100902.52
2023-04-07T20:40:37.364Z,100908.89
2023-04-07T20:43:09.925Z,100908.39
2023-04-07T20:45:42.277Z,100904.52
2023-04-07T20:48:15.688Z,100909.30
2023-04-07T20:50:48.528Z,100907.27
2023-04-07T20:53:21.073Z,100907.14
2023-04-07T20:55:53.526Z,100904.21
2023-04-07T20:58:25.910Z,100909.66
2023-04-07T21:01:00.976Z,100908.88
2023-04-07T21:03:35.969Z,100909.16
2023-04-07T21:06:08.912Z,100913.05
2023-04-07T21:08:41.308Z,100911.27
2023-04-07T21:11:13.511Z,100911.80
2023-04-07T21:13:45.913Z,100910.90
2023-04-07T21:16:18.239Z,100902.55
2023-04-07T21:18:50.929Z,100901.13
2023-04-07T21:21:23.404Z,100905.42
2023-04-07T21:23:55.780Z,100909.26
2023-04-07T21:26:28.194Z,100909.04
2023-04-07T21:29:00.455Z,100904.88
2023-04-07T21:31:33.853Z,100905.98
2023-04-07T21:34:06.378Z,100902.39
2023-04-07T21:36:40.246Z,100897.91
2023-04-07T21:39:12.601Z,100904.24
2023-04-07T21:41:45.509Z,100909.84
2023-04-07T21:44:20.280Z,100899.37
2023-04-07T21:46:50.999Z,100908.42
2023-04-07T21:49:25.339Z,100910.55
2023-04-07T21:51:58.203Z,100915.26
2023-04-07T21:54:30.620Z,100913.91
2023-04-07T21:57:03.244Z,100889.33
2023-04-07T21:59:36.134Z,100921.77
2023-04-07T22:02:08.283Z,100921.52
2023-04-07T22:04:41.456Z,100925.79
2023-04-07T22:07:14.118Z,100920.91
2023-04-07T22:09:46.267Z,100926.91
2023-04-07T22:12:18.502Z,100929.48
2023-04-07T22:14:51.135Z,100928.91
2023-04-07T22:17:24.159Z,100920.75
2023-04-07T22:19:56.352Z,100933.03
2023-04-07T22:22:28.710Z,100938.65
2023-04-07T22:25:01.644Z,100936.89
2023-04-07T22:27:35.376Z,100937.83
2023-04-07T22:30:10.952Z,100937.60
2023-04-07T22:32:43.180Z,100942.16
2023-04-07T22:35:15.741Z,100938.04
2023-04-07T22:37:48.310Z,100930.02
2023-04-07T22:40:21.030Z,100942.02
2023-04-07T22:42:53.392Z,100947.00
2023-04-07T22:45:26.052Z,100951.88
2023-04-07T22:47:58.061Z,100951.83
2023-04-07T22:50:30.547Z,100955.98
2023-04-07T22:53:03.547Z,100957.31
2023-04-07T22:55:36.373Z,100964.88
2023-04-07T22:58:08.495Z,100965.30
2023-04-07T23:00:40.780Z,100975.59
2023-04-07T23:03:14.857Z,100981.20
2023-04-07T23:05:47.506Z,100977.20
2023-04-07T23:08:20.298Z,100979.05
2023-04-07T23:10:52.411Z,100983.02
2023-04-07T23:13:24.568Z,100983.71
2023-04-07T23:15:56.714Z,100982.49
2023-04-07T23:18:29.000Z,100991.55
2023-04-07T23:21:02.045Z,100990.05
2023-04-07T23:23:34.169Z,100989.98
2023-04-07T23:26:07.043Z,100993.83
2023-04-07T23:28:39.411Z,100979.77
2023-04-07T23:31:11.827Z,100995.46
2023-04-07T23:33:44.247Z,100993.48
2023-04-07T23:36:16.708Z,100988.87
2023-04-07T23:38:49.566Z,100996.56
2023-04-07T23:41:21.958Z,100983.93
2023-04-07T23:43:54.449Z,100991.96
2023-04-07T23:46:26.982Z,101003.44
2023-04-07T23:48:59.596Z,101009.59
2023-04-07T23:51:31.878Z,101011.98
2023-04-07T23:54:04.237Z,101014.23
2023-04-07T23:56:36.675Z,101012.43
2023-04-07T23:59:08.841Z,101014.68
